Terminal Aerodrome Forecast
Issued by NWS Dallas/Fort Worth, TX

Home | Current Version | Previous Version | Text Only | Print | Product List | Glossary On
Versions: 1 2 3 4 5 6 7 8 9 10 11 12 13 14 15 16 17 18 19 20 21 22 23 24 25 26 27 28 29
000
FTUS44 KFWD 301504 AAB
TAFACT
TAF AMD
KACT 301504Z 3015/0112 34009KT P6SM BKN012
     FM301800 36010KT P6SM BKN022
     FM302100 33008KT P6SM SCT025
     FM010600 02004KT P6SM SKC=

USA.gov is the U.S. government's official web portal to all federal, state and local government web resources and services.